createdAt,value
2023-01-17T00:02:05.931Z,95303.78
2023-01-17T00:04:50.974Z,95312.34
2023-01-17T00:07:37.835Z,95309.78
2023-01-17T00:10:12.149Z,95309.03
2023-01-17T00:12:39.342Z,95310.69
2023-01-17T00:15:07.248Z,95319.06
2023-01-17T00:17:33.723Z,95318.09
2023-01-17T00:20:20.255Z,95324.13
2023-01-17T00:23:05.615Z,95318.38
2023-01-17T00:25:55.261Z,95320.84
2023-01-17T00:28:22.130Z,95323.56
2023-01-17T00:30:48.529Z,95322.84
2023-01-17T00:33:14.895Z,95321.22
2023-01-17T00:35:41.481Z,95322.19
2023-01-17T00:38:13.091Z,95330.72
2023-01-17T00:40:42.452Z,95324.66
2023-01-17T00:43:28.781Z,95341.84
2023-01-17T00:46:14.347Z,95346.22
2023-01-17T00:49:02.273Z,95349.72
2023-01-17T00:51:49.050Z,95354.22
2023-01-17T00:54:34.576Z,95361.56
2023-01-17T00:57:20.399Z,95372.75
2023-01-17T01:00:05.644Z,95370.06
2023-01-17T01:02:50.950Z,95376.06
2023-01-17T01:05:35.848Z,95380.41
2023-01-17T01:08:21.887Z,95378.56
2023-01-17T01:11:07.792Z,95384.59
2023-01-17T01:13:53.302Z,95380.19
2023-01-17T01:16:38.537Z,95385.41
2023-01-17T01:19:24.344Z,95390.44
2023-01-17T01:22:09.265Z,95397.41
2023-01-17T01:24:54.014Z,95399.16
2023-01-17T01:27:39.075Z,95400.16
2023-01-17T01:30:24.471Z,95405.38
2023-01-17T01:33:09.367Z,95406.88
2023-01-17T01:35:36.925Z,95401.94
2023-01-17T01:38:03.920Z,95403.44
2023-01-17T01:40:30.349Z,95410.47
2023-01-17T01:43:00.224Z,95408.97
2023-01-17T01:45:29.700Z,95413.91
2023-01-17T01:48:20.764Z,95415.00
2023-01-17T01:50:50.297Z,95420.75
2023-01-17T01:53:20.102Z,95419.28
2023-01-17T01:55:49.286Z,95430.94
2023-01-17T01:58:22.815Z,95425.84
2023-01-17T02:00:49.330Z,95435.91
2023-01-17T02:03:21.430Z,95435.44
2023-01-17T02:05:48.207Z,95431.09
2023-01-17T02:08:17.066Z,95428.00
2023-01-17T02:10:46.867Z,95434.25
2023-01-17T02:13:16.033Z,95439.34
2023-01-17T02:15:57.822Z,95438.72
2023-01-17T02:18:30.790Z,95441.88
2023-01-17T02:21:14.254Z,95431.72
2023-01-17T02:23:46.567Z,95439.34
2023-01-17T02:26:16.033Z,95437.00
2023-01-17T02:29:06.987Z,95446.09
2023-01-17T02:31:37.055Z,95433.69
2023-01-17T02:34:10.646Z,95436.31
2023-01-17T02:36:44.480Z,95437.34
2023-01-17T02:39:20.602Z,95450.31
2023-01-17T02:42:04.619Z,95437.16
2023-01-17T02:44:40.853Z,95445.16
2023-01-17T02:47:30.089Z,95450.47
2023-01-17T02:50:03.461Z,95443.81
2023-01-17T02:52:36.015Z,95450.63
2023-01-17T02:55:23.844Z,95453.38
2023-01-17T02:58:13.303Z,95438.19
2023-01-17T03:01:03.100Z,95442.69
2023-01-17T03:03:50.218Z,95438.53
2023-01-17T03:06:26.777Z,95443.72
2023-01-17T03:08:53.969Z,95445.38
2023-01-17T03:11:20.659Z,95442.09
2023-01-17T03:13:47.111Z,95452.94
2023-01-17T03:16:21.810Z,95464.28
2023-01-17T03:18:49.215Z,95472.63
2023-01-17T03:21:15.676Z,95474.94
2023-01-17T03:23:42.196Z,95480.16
2023-01-17T03:26:08.631Z,95486.78
2023-01-17T03:28:35.049Z,95485.25
2023-01-17T03:31:01.515Z,95486.41
2023-01-17T03:33:27.932Z,95488.00
2023-01-17T03:35:57.966Z,95493.91
2023-01-17T03:38:28.770Z,95493.19
2023-01-17T03:40:55.400Z,95497.59
2023-01-17T03:43:21.788Z,95500.06
2023-01-17T03:45:54.451Z,95506.97
2023-01-17T03:48:21.684Z,95504.22
2023-01-17T03:50:51.469Z,95494.31
2023-01-17T03:53:17.884Z,95498.06
2023-01-17T03:55:47.566Z,95501.56
2023-01-17T03:58:14.173Z,95505.69
2023-01-17T04:00:40.557Z,95504.03
2023-01-17T04:03:06.967Z,95505.03
2023-01-17T04:05:33.406Z,95503.59
2023-01-17T04:07:59.793Z,95518.16
2023-01-17T04:10:26.331Z,95510.13
2023-01-17T04:12:52.749Z,95518.78
2023-01-17T04:15:19.131Z,95518.66
2023-01-17T04:17:45.540Z,95517.75
2023-01-17T04:20:32.835Z,95513.69
2023-01-17T04:22:59.464Z,95514.06
2023-01-17T04:25:26.040Z,95525.84
2023-01-17T04:27:53.788Z,95520.16
2023-01-17T04:30:20.255Z,95516.94
2023-01-17T04:32:46.826Z,95522.53
2023-01-17T04:35:13.340Z,95533.41
2023-01-17T04:37:39.878Z,95545.47
2023-01-17T04:40:07.189Z,95549.03
2023-01-17T04:42:33.614Z,95545.66
2023-01-17T04:45:00.037Z,95544.19
2023-01-17T04:47:26.410Z,95552.59
2023-01-17T04:49:53.572Z,95558.22
2023-01-17T04:52:20.658Z,95565.22
2023-01-17T04:54:49.534Z,95563.50
2023-01-17T04:57:17.247Z,95567.59
2023-01-17T04:59:44.301Z,95568.84
2023-01-17T05:02:11.105Z,95576.59
2023-01-17T05:04:37.817Z,95574.22
2023-01-17T05:07:04.725Z,95583.56
2023-01-17T05:09:31.209Z,95593.03
2023-01-17T05:11:57.720Z,95597.16
2023-01-17T05:14:26.300Z,95599.03
2023-01-17T05:16:57.057Z,95597.56
2023-01-17T05:19:24.669Z,95602.38
2023-01-17T05:21:51.292Z,95599.16
2023-01-17T05:24:18.776Z,95603.56
2023-01-17T05:26:46.040Z,95599.53
2023-01-17T05:29:12.493Z,95599.66
2023-01-17T05:31:39.004Z,95606.59
2023-01-17T05:34:05.391Z,95595.69
2023-01-17T05:36:31.819Z,95582.50
2023-01-17T05:38:59.241Z,95597.03
2023-01-17T05:41:25.685Z,95588.56
2023-01-17T05:43:52.068Z,95589.63
2023-01-17T05:46:18.530Z,95597.47
2023-01-17T05:48:45.002Z,95598.53
2023-01-17T05:51:11.610Z,95598.63
2023-01-17T05:53:38.008Z,95598.56
2023-01-17T05:56:04.657Z,95603.81
2023-01-17T05:58:31.072Z,95603.88
2023-01-17T06:00:57.498Z,95606.38
2023-01-17T06:03:24.021Z,95606.31
2023-01-17T06:05:50.477Z,95612.13
2023-01-17T06:08:17.056Z,95617.13
2023-01-17T06:10:43.481Z,95621.38
2023-01-17T06:13:12.626Z,95631.34
2023-01-17T06:15:39.639Z,95627.19
2023-01-17T06:18:08.645Z,95627.81
2023-01-17T06:20:35.696Z,95623.66
2023-01-17T06:23:04.426Z,95622.84
2023-01-17T06:25:36.470Z,95621.41
2023-01-17T06:28:03.031Z,95618.94
2023-01-17T06:30:29.453Z,95612.31
2023-01-17T06:32:55.878Z,95618.34
2023-01-17T06:35:22.900Z,95617.50
2023-01-17T06:37:55.570Z,95613.47
2023-01-17T06:40:22.443Z,95618.66
2023-01-17T06:42:48.871Z,95616.19
2023-01-17T06:45:15.295Z,95611.28
2023-01-17T06:47:41.820Z,95617.13
2023-01-17T06:50:11.126Z,95622.25
2023-01-17T06:52:37.647Z,95617.22
2023-01-17T06:55:04.587Z,95628.97
2023-01-17T06:57:31.051Z,95632.16
2023-01-17T06:59:57.514Z,95625.50
2023-01-17T07:02:24.150Z,95625.56
2023-01-17T07:04:50.605Z,95621.38
2023-01-17T07:07:17.204Z,95630.69
2023-01-17T07:09:44.081Z,95635.88
2023-01-17T07:12:10.755Z,95632.56
2023-01-17T07:14:37.355Z,95636.59
2023-01-17T07:17:04.271Z,95645.06
2023-01-17T07:19:30.705Z,95645.13
2023-01-17T07:21:57.189Z,95656.03
2023-01-17T07:24:23.616Z,95651.88
2023-01-17T07:26:51.584Z,95653.44
2023-01-17T07:29:18.436Z,95653.47
2023-01-17T07:31:44.897Z,95647.63
2023-01-17T07:34:11.542Z,95649.34
2023-01-17T07:36:38.042Z,95655.19
2023-01-17T07:39:06.314Z,95652.69
2023-01-17T07:41:35.645Z,95647.63
2023-01-17T07:44:02.052Z,95651.72
2023-01-17T07:46:28.448Z,95646.56
2023-01-17T07:48:54.863Z,95648.19
2023-01-17T07:51:21.306Z,95642.78
2023-01-17T07:53:47.712Z,95638.53
2023-01-17T07:56:14.101Z,95633.19
2023-01-17T07:58:40.556Z,95637.22
2023-01-17T08:01:09.540Z,95634.94
2023-01-17T08:03:39.858Z,95628.72
2023-01-17T08:06:13.503Z,95629.06
2023-01-17T08:08:39.932Z,95633.47
2023-01-17T08:11:06.320Z,95636.97
2023-01-17T08:13:32.736Z,95638.00
2023-01-17T08:16:02.296Z,95635.59
2023-01-17T08:18:29.780Z,95631.16
2023-01-17T08:20:56.405Z,95630.31
2023-01-17T08:23:23.043Z,95633.03
2023-01-17T08:25:49.608Z,95636.53
2023-01-17T08:28:16.022Z,95627.88
2023-01-17T08:30:42.390Z,95631.56
2023-01-17T08:33:08.781Z,95628.00
2023-01-17T08:35:36.343Z,95635.50
2023-01-17T08:38:04.877Z,95628.94
2023-01-17T08:40:32.735Z,95630.34
2023-01-17T08:43:00.896Z,95626.22
2023-01-17T08:45:27.879Z,95631.47
2023-01-17T08:47:54.319Z,95625.13
2023-01-17T08:50:20.807Z,95625.47
2023-01-17T08:52:48.693Z,95629.84
2023-01-17T08:55:16.101Z,95629.59
2023-01-17T08:57:42.581Z,95630.50
2023-01-17T09:00:09.618Z,95624.44
2023-01-17T09:02:36.347Z,95625.75
2023-01-17T09:05:02.880Z,95622.88
2023-01-17T09:07:29.312Z,95636.50
2023-01-17T09:09:55.787Z,95628.72
2023-01-17T09:12:22.372Z,95628.06
2023-01-17T09:14:49.309Z,95633.66
2023-01-17T09:17:16.081Z,95635.19
2023-01-17T09:19:46.579Z,95629.94
2023-01-17T09:22:15.884Z,95629.22
2023-01-17T09:24:42.528Z,95630.88
2023-01-17T09:27:09.011Z,95631.78
2023-01-17T09:29:35.527Z,95628.72
2023-01-17T09:32:02.120Z,95634.09
2023-01-17T09:34:28.560Z,95632.59
2023-01-17T09:36:56.950Z,95637.81
2023-01-17T09:39:23.489Z,95633.31
2023-01-17T09:42:02.052Z,95627.19
2023-01-17T09:44:42.728Z,95632.53
2023-01-17T09:47:24.665Z,95626.19
2023-01-17T09:49:53.135Z,95614.56
2023-01-17T09:52:23.355Z,95614.53
2023-01-17T09:54:50.984Z,95604.16
2023-01-17T09:57:26.309Z,95608.72
2023-01-17T10:00:26.718Z,95614.44
2023-01-17T10:03:27.291Z,95609.91
2023-01-17T10:06:05.506Z,95609.06
2023-01-17T10:08:57.934Z,95615.13
2023-01-17T10:11:37.530Z,95605.63
2023-01-17T10:14:21.009Z,95605.69
2023-01-17T10:17:38.726Z,95601.84
2023-01-17T10:20:34.007Z,95595.22
2023-01-17T10:23:31.905Z,95597.22
2023-01-17T10:26:03.111Z,95591.28
2023-01-17T10:28:40.405Z,95589.66
2023-01-17T10:31:26.255Z,95595.16
2023-01-17T10:34:03.636Z,95595.44
2023-01-17T10:36:34.673Z,95594.59
2023-01-17T10:39:12.738Z,95589.78
2023-01-17T10:41:50.780Z,95593.22
2023-01-17T10:44:49.755Z,95584.59
2023-01-17T10:47:24.534Z,95592.19
2023-01-17T10:49:53.669Z,95588.91
2023-01-17T10:52:38.971Z,95587.03
2023-01-17T10:55:30.413Z,95581.88
2023-01-17T10:57:58.153Z,95589.66
2023-01-17T11:00:59.677Z,95582.91
2023-01-17T11:03:27.464Z,95578.44
2023-01-17T11:06:16.177Z,95578.25
2023-01-17T11:08:54.263Z,95579.19
2023-01-17T11:11:24.638Z,95568.13
2023-01-17T11:13:53.552Z,95560.63
2023-01-17T11:16:26.697Z,95556.09
2023-01-17T11:19:18.726Z,95556.41
2023-01-17T11:21:57.529Z,95555.69
2023-01-17T11:24:52.551Z,95547.84
2023-01-17T11:27:28.122Z,95549.66
2023-01-17T11:30:16.496Z,95539.09
2023-01-17T11:33:06.058Z,95536.97
2023-01-17T11:35:35.038Z,95525.84
2023-01-17T11:38:10.767Z,95524.53
2023-01-17T11:40:40.936Z,95525.44
2023-01-17T11:43:26.492Z,95518.41
2023-01-17T11:46:18.610Z,95518.81
2023-01-17T11:48:56.126Z,95510.56
2023-01-17T11:51:28.397Z,95508.31
2023-01-17T11:54:03.376Z,95505.38
2023-01-17T11:56:33.508Z,95494.06
2023-01-17T11:59:18.462Z,95496.09
2023-01-17T12:01:55.692Z,95493.28
2023-01-17T12:04:29.740Z,95492.22
2023-01-17T12:07:19.243Z,95485.78
2023-01-17T12:10:18.977Z,95482.16
2023-01-17T12:13:25.425Z,95480.09
2023-01-17T12:16:00.001Z,95480.34
2023-01-17T12:18:45.688Z,95481.50
2023-01-17T12:21:20.508Z,95484.75
2023-01-17T12:24:05.715Z,95484.59
2023-01-17T12:26:45.663Z,95492.63
2023-01-17T12:29:27.503Z,95480.81
2023-01-17T12:32:26.028Z,95486.50
2023-01-17T12:35:15.215Z,95494.72
2023-01-17T12:37:44.798Z,95498.63
2023-01-17T12:40:17.141Z,95491.41
2023-01-17T12:42:51.868Z,95490.28
2023-01-17T12:45:32.053Z,95488.97
2023-01-17T12:48:05.263Z,95487.97
2023-01-17T12:50:43.137Z,95482.72
2023-01-17T12:53:37.886Z,95485.34
2023-01-17T12:56:30.431Z,95473.06
2023-01-17T12:59:13.065Z,95470.88
2023-01-17T13:01:40.047Z,95469.16
2023-01-17T13:04:57.022Z,95450.84
2023-01-17T13:07:47.579Z,95445.47
2023-01-17T13:10:31.060Z,95449.88
2023-01-17T13:13:13.220Z,95446.91
2023-01-17T13:15:41.635Z,95450.03
2023-01-17T13:18:17.292Z,95446.66
2023-01-17T13:20:59.352Z,95463.81
2023-01-17T13:23:37.477Z,95455.94
2023-01-17T13:26:14.779Z,95449.22
2023-01-17T13:29:35.241Z,95455.28
2023-01-17T13:32:04.399Z,95447.19
2023-01-17T13:34:49.109Z,95439.84
2023-01-17T13:37:53.296Z,95439.84
2023-01-17T13:40:31.704Z,95431.31
2023-01-17T13:43:01.113Z,95422.88
2023-01-17T13:45:31.271Z,95429.34
2023-01-17T13:48:40.800Z,95442.09
2023-01-17T13:51:11.045Z,95440.00
2023-01-17T13:53:40.549Z,95434.22
2023-01-17T13:56:16.024Z,95433.63
2023-01-17T13:59:03.621Z,95421.69
2023-01-17T14:01:34.747Z,95418.94
2023-01-17T14:04:04.074Z,95420.34
2023-01-17T14:06:44.208Z,95416.91
2023-01-17T14:09:22.158Z,95421.09
2023-01-17T14:12:05.958Z,95425.50
2023-01-17T14:14:37.282Z,95415.72
2023-01-17T14:17:27.988Z,95407.47
2023-01-17T14:20:26.101Z,95400.19
2023-01-17T14:22:55.941Z,95388.78
2023-01-17T14:25:29.940Z,95389.19
2023-01-17T14:28:07.811Z,95389.47
2023-01-17T14:30:36.831Z,95380.34
2023-01-17T14:33:04.746Z,95384.69
2023-01-17T14:35:49.509Z,95384.81
2023-01-17T14:38:22.997Z,95384.22
2023-01-17T14:40:53.927Z,95370.88
2023-01-17T14:43:23.558Z,95374.41
2023-01-17T14:45:57.740Z,95368.56
2023-01-17T14:48:24.934Z,95362.88
2023-01-17T14:50:54.184Z,95359.63
2023-01-17T14:53:27.901Z,95352.44
2023-01-17T14:55:56.578Z,95341.38
2023-01-17T14:58:23.034Z,95342.84
2023-01-17T15:00:56.648Z,95342.81
2023-01-17T15:03:23.446Z,95334.69
2023-01-17T15:05:52.733Z,95335.50
2023-01-17T15:08:22.323Z,95331.47
2023-01-17T15:10:58.746Z,95338.56
2023-01-17T15:13:43.936Z,95343.94
2023-01-17T15:16:20.682Z,95344.34
2023-01-17T15:18:47.803Z,95349.75
2023-01-17T15:21:21.171Z,95340.66
2023-01-17T15:23:54.968Z,95341.75
2023-01-17T15:26:24.644Z,95342.81
2023-01-17T15:28:53.317Z,95340.50
2023-01-17T15:31:48.349Z,95340.81
2023-01-17T15:34:34.782Z,95337.03
2023-01-17T15:37:08.067Z,95340.72
2023-01-17T15:39:37.612Z,95346.91
2023-01-17T15:42:07.938Z,95348.81
2023-01-17T15:44:47.916Z,95342.59
2023-01-17T15:47:38.526Z,95342.22
2023-01-17T15:50:27.933Z,95342.47
2023-01-17T15:53:00.975Z,95345.25
2023-01-17T15:55:38.830Z,95343.88
2023-01-17T15:58:23.420Z,95346.84
2023-01-17T16:00:49.912Z,95348.03
2023-01-17T16:03:19.328Z,95342.25
2023-01-17T16:05:48.860Z,95336.47
2023-01-17T16:08:16.277Z,95336.06
2023-01-17T16:10:44.024Z,95338.00
2023-01-17T16:13:12.762Z,95338.97
2023-01-17T16:15:42.675Z,95335.97
2023-01-17T16:18:23.988Z,95334.38
2023-01-17T16:20:59.410Z,95338.94
2023-01-17T16:23:26.496Z,95336.38
2023-01-17T16:25:53.991Z,95342.47
2023-01-17T16:28:20.909Z,95340.91
2023-01-17T16:30:48.795Z,95346.97
2023-01-17T16:33:15.553Z,95348.63
2023-01-17T16:35:44.063Z,95342.03
2023-01-17T16:38:12.569Z,95345.41
2023-01-17T16:40:41.909Z,95343.94
2023-01-17T16:43:11.434Z,95346.41
2023-01-17T16:45:53.142Z,95345.66
2023-01-17T16:48:20.344Z,95355.22
2023-01-17T16:50:50.710Z,95361.34
2023-01-17T16:53:24.823Z,95363.09
2023-01-17T16:55:56.219Z,95364.88
2023-01-17T16:58:23.045Z,95364.09
2023-01-17T17:00:50.529Z,95361.56
2023-01-17T17:03:18.867Z,95365.97
2023-01-17T17:05:47.224Z,95369.28
2023-01-17T17:08:15.416Z,95370.97
2023-01-17T17:10:41.881Z,95375.13
2023-01-17T17:13:08.393Z,95368.28
2023-01-17T17:15:34.785Z,95364.22
2023-01-17T17:18:01.561Z,95362.50
2023-01-17T17:20:28.007Z,95365.63
2023-01-17T17:22:54.387Z,95359.09
2023-01-17T17:25:20.851Z,95354.84
2023-01-17T17:27:47.303Z,95353.19
2023-01-17T17:30:14.120Z,95363.44
2023-01-17T17:32:40.610Z,95355.88
2023-01-17T17:35:07.274Z,95355.88
2023-01-17T17:37:34.727Z,95356.69
2023-01-17T17:40:01.233Z,95351.56
2023-01-17T17:42:27.638Z,95359.22
2023-01-17T17:44:54.172Z,95361.78
2023-01-17T17:47:20.629Z,95360.13
2023-01-17T17:49:47.076Z,95358.47
2023-01-17T17:52:13.503Z,95363.66
2023-01-17T17:54:40.046Z,95371.44
2023-01-17T17:57:07.449Z,95363.03
2023-01-17T17:59:33.978Z,95362.34
2023-01-17T18:02:00.392Z,95370.00
2023-01-17T18:04:27.103Z,95375.88
2023-01-17T18:06:57.945Z,95368.31
2023-01-17T18:09:25.428Z,95378.63
2023-01-17T18:11:51.986Z,95372.22
2023-01-17T18:14:21.015Z,95368.19
2023-01-17T18:16:47.793Z,95378.25
2023-01-17T18:19:17.257Z,95364.94
2023-01-17T18:21:43.676Z,95373.38
2023-01-17T18:24:13.047Z,95369.13
2023-01-17T18:26:45.156Z,95366.09
2023-01-17T18:29:17.680Z,95370.41
2023-01-17T18:31:45.592Z,95378.97
2023-01-17T18:34:14.708Z,95375.69
2023-01-17T18:36:41.564Z,95396.03
2023-01-17T18:39:24.639Z,95384.38
2023-01-17T18:41:51.586Z,95383.50
2023-01-17T18:44:21.747Z,95391.25
2023-01-17T18:46:48.999Z,95382.91
2023-01-17T18:49:18.259Z,95380.44
2023-01-17T18:51:50.763Z,95385.59
2023-01-17T18:54:18.584Z,95384.78
2023-01-17T18:56:45.132Z,95383.13
2023-01-17T18:59:13.417Z,95381.44
2023-01-17T19:01:43.437Z,95378.16
2023-01-17T19:04:11.505Z,95371.44
2023-01-17T19:06:40.819Z,95371.44
2023-01-17T19:09:08.556Z,95371.44
2023-01-17T19:11:36.677Z,95378.38
2023-01-17T19:14:03.630Z,95378.38
2023-01-17T19:16:34.772Z,95378.38
2023-01-17T19:19:04.525Z,95378.31
2023-01-17T19:21:31.174Z,95376.69
2023-01-17T19:23:57.924Z,95386.00
2023-01-17T19:26:26.428Z,95390.22
2023-01-17T19:28:55.738Z,95384.44
2023-01-17T19:31:24.618Z,95384.34
2023-01-17T19:33:53.527Z,95386.91
2023-01-17T19:36:23.567Z,95396.19
2023-01-17T19:39:03.500Z,95402.88
2023-01-17T19:41:32.166Z,95396.13
2023-01-17T19:44:01.331Z,95396.94
2023-01-17T19:46:28.266Z,95399.47
2023-01-17T19:48:56.323Z,95396.13
2023-01-17T19:51:24.142Z,95402.00
2023-01-17T19:53:50.670Z,95408.63
2023-01-17T19:56:19.720Z,95406.03
2023-01-17T19:58:47.563Z,95413.59
2023-01-17T20:01:17.329Z,95406.75
2023-01-17T20:03:44.792Z,95406.75
2023-01-17T20:06:13.794Z,95403.50
2023-01-17T20:08:40.720Z,95405.13
2023-01-17T20:11:21.797Z,95409.28
2023-01-17T20:13:51.320Z,95409.22
2023-01-17T20:16:18.103Z,95399.22
2023-01-17T20:18:45.648Z,95399.97
2023-01-17T20:21:14.707Z,95394.91
2023-01-17T20:23:42.941Z,95395.06
2023-01-17T20:26:11.582Z,95400.94
2023-01-17T20:28:40.895Z,95396.59
2023-01-17T20:31:17.454Z,95394.91
2023-01-17T20:33:45.702Z,95396.47
2023-01-17T20:36:14.917Z,95403.16
2023-01-17T20:38:45.776Z,95409.00
2023-01-17T20:41:33.377Z,95407.25
2023-01-17T20:44:01.728Z,95405.34
2023-01-17T20:46:31.747Z,95406.16
2023-01-17T20:49:00.464Z,95403.63
2023-01-17T20:51:28.818Z,95405.34
2023-01-17T20:53:57.303Z,95412.91
2023-01-17T20:56:25.436Z,95408.69
2023-01-17T20:58:54.845Z,95412.94
2023-01-17T21:01:24.287Z,95413.66
2023-01-17T21:03:53.177Z,95405.97
2023-01-17T21:06:24.618Z,95405.16
2023-01-17T21:08:52.153Z,95399.06
2023-01-17T21:11:21.315Z,95402.34
2023-01-17T21:13:51.308Z,95396.31
2023-01-17T21:16:20.276Z,95405.47
2023-01-17T21:18:50.439Z,95402.94
2023-01-17T21:21:21.793Z,95409.56
2023-01-17T21:23:49.770Z,95402.94
2023-01-17T21:26:18.313Z,95407.88
2023-01-17T21:28:46.205Z,95403.53
2023-01-17T21:31:35.072Z,95398.53
2023-01-17T21:34:04.043Z,95396.97
2023-01-17T21:36:33.148Z,95397.75
2023-01-17T21:39:04.163Z,95391.78
2023-01-17T21:41:34.656Z,95401.00
2023-01-17T21:44:10.107Z,95397.53
2023-01-17T21:46:38.432Z,95399.09
2023-01-17T21:49:05.497Z,95390.59
2023-01-17T21:51:50.772Z,95396.25
2023-01-17T21:54:17.174Z,95399.56
2023-01-17T21:57:02.275Z,95403.69
2023-01-17T21:59:31.201Z,95396.03
2023-01-17T22:01:58.298Z,95396.91
2023-01-17T22:04:25.712Z,95399.47
2023-01-17T22:06:52.137Z,95401.09
2023-01-17T22:09:18.563Z,95396.88
2023-01-17T22:11:44.954Z,95397.69
2023-01-17T22:14:11.573Z,95400.28
2023-01-17T22:16:37.961Z,95396.88
2023-01-17T22:19:04.556Z,95400.16
2023-01-17T22:21:31.012Z,95399.34
2023-01-17T22:23:59.487Z,95395.16
2023-01-17T22:26:28.909Z,95399.34
2023-01-17T22:28:56.367Z,95396.88
2023-01-17T22:31:25.529Z,95400.91
2023-01-17T22:33:58.058Z,95400.91
2023-01-17T22:36:25.195Z,95397.47
2023-01-17T22:38:51.586Z,95402.63
2023-01-17T22:41:20.712Z,95396.91
2023-01-17T22:43:50.411Z,95394.28
2023-01-17T22:46:19.665Z,95391.81
2023-01-17T22:48:46.416Z,95388.53
2023-01-17T22:51:15.191Z,95391.97
2023-01-17T22:53:43.321Z,95390.41
2023-01-17T22:56:15.680Z,95377.88
2023-01-17T22:58:44.903Z,95376.19
2023-01-17T23:01:23.551Z,95379.59
2023-01-17T23:03:53.935Z,95383.91
2023-01-17T23:06:23.116Z,95379.72
2023-01-17T23:08:51.683Z,95378.06
2023-01-17T23:11:40.466Z,95380.59
2023-01-17T23:14:12.225Z,95380.69
2023-01-17T23:17:03.022Z,95379.72
2023-01-17T23:19:33.532Z,95381.47
2023-01-17T23:22:16.377Z,95379.72
2023-01-17T23:24:58.388Z,95378.84
2023-01-17T23:27:46.032Z,95382.13
2023-01-17T23:30:14.141Z,95386.22
2023-01-17T23:32:47.992Z,95386.34
2023-01-17T23:35:15.533Z,95380.41
2023-01-17T23:38:00.389Z,95378.69
2023-01-17T23:40:27.025Z,95385.41
2023-01-17T23:43:11.981Z,95382.81
2023-01-17T23:45:39.355Z,95381.91
2023-01-17T23:48:09.123Z,95384.44
2023-01-17T23:50:37.138Z,95381.84
2023-01-17T23:53:09.481Z,95380.13
2023-01-17T23:55:40.696Z,95378.34
2023-01-17T23:58:08.883Z,95381.72
